sensor_id;sensor_type;location;lat;lon;timestamp;P1;durP1;ratioP1;P2;durP2;ratioP2
25687;SDS011;17407;51.120;3.702;2023-09-07T00:00:48;10.63;;;9.38;;
25687;SDS011;17407;51.120;3.702;2023-09-07T00:03:13;12.10;;;10.20;;
25687;SDS011;17407;51.120;3.702;2023-09-07T00:05:40;11.07;;;9.98;;
25687;SDS011;17407;51.120;3.702;2023-09-07T00:08:06;12.68;;;10.65;;
25687;SDS011;17407;51.120;3.702;2023-09-07T00:10:32;12.27;;;10.98;;
25687;SDS011;17407;51.120;3.702;2023-09-07T00:13:04;12.52;;;11.23;;
25687;SDS011;17407;51.120;3.702;2023-09-07T00:15:30;16.00;;;11.32;;
25687;SDS011;17407;51.120;3.702;2023-09-07T00:18:01;13.43;;;10.95;;
25687;SDS011;17407;51.120;3.702;2023-09-07T00:20:27;12.23;;;10.90;;
25687;SDS011;17407;51.120;3.702;2023-09-07T00:22:52;13.15;;;11.85;;
25687;SDS011;17407;51.120;3.702;2023-09-07T00:25:18;12.43;;;11.23;;
25687;SDS011;17407;51.120;3.702;2023-09-07T00:27:45;16.05;;;11.38;;
25687;SDS011;17407;51.120;3.702;2023-09-07T00:30:10;14.85;;;11.32;;
25687;SDS011;17407;51.120;3.702;2023-09-07T00:32:37;13.90;;;11.50;;
25687;SDS011;17407;51.120;3.702;2023-09-07T00:35:03;13.55;;;11.68;;
25687;SDS011;17407;51.120;3.702;2023-09-07T00:37:30;14.23;;;11.70;;
25687;SDS011;17407;51.120;3.702;2023-09-07T00:39:56;16.25;;;11.18;;
25687;SDS011;17407;51.120;3.702;2023-09-07T00:42:22;13.60;;;10.55;;
25687;SDS011;17407;51.120;3.702;2023-09-07T00:44:47;12.85;;;9.70;;
25687;SDS011;17407;51.120;3.702;2023-09-07T00:47:13;11.35;;;9.80;;
25687;SDS011;17407;51.120;3.702;2023-09-07T00:49:40;13.55;;;9.40;;
25687;SDS011;17407;51.120;3.702;2023-09-07T00:52:06;11.05;;;9.60;;
25687;SDS011;17407;51.120;3.702;2023-09-07T00:54:33;15.18;;;10.48;;
25687;SDS011;17407;51.120;3.702;2023-09-07T00:56:59;17.05;;;11.65;;
25687;SDS011;17407;51.120;3.702;2023-09-07T00:59:25;12.55;;;11.25;;
25687;SDS011;17407;51.120;3.702;2023-09-07T01:01:51;17.08;;;11.82;;
25687;SDS011;17407;51.120;3.702;2023-09-07T01:04:16;16.13;;;12.52;;
25687;SDS011;17407;51.120;3.702;2023-09-07T01:06:43;14.73;;;12.57;;
25687;SDS011;17407;51.120;3.702;2023-09-07T01:09:19;13.55;;;12.02;;
25687;SDS011;17407;51.120;3.702;2023-09-07T01:11:48;16.55;;;12.48;;
25687;SDS011;17407;51.120;3.702;2023-09-07T01:14:15;16.30;;;13.32;;
25687;SDS011;17407;51.120;3.702;2023-09-07T01:16:40;18.98;;;12.98;;
25687;SDS011;17407;51.120;3.702;2023-09-07T01:19:06;16.00;;;12.70;;
25687;SDS011;17407;51.120;3.702;2023-09-07T01:21:36;17.02;;;12.70;;
25687;SDS011;17407;51.120;3.702;2023-09-07T01:24:07;16.15;;;13.70;;
25687;SDS011;17407;51.120;3.702;2023-09-07T01:26:34;16.63;;;14.10;;
25687;SDS011;17407;51.120;3.702;2023-09-07T01:29:04;16.00;;;12.70;;
25687;SDS011;17407;51.120;3.702;2023-09-07T01:31:33;16.83;;;13.73;;
25687;SDS011;17407;51.120;3.702;2023-09-07T01:34:00;18.70;;;13.35;;
25687;SDS011;17407;51.120;3.702;2023-09-07T01:36:26;20.38;;;13.80;;
25687;SDS011;17407;51.120;3.702;2023-09-07T01:38:51;15.60;;;13.40;;
25687;SDS011;17407;51.120;3.702;2023-09-07T01:41:17;17.77;;;14.85;;
25687;SDS011;17407;51.120;3.702;2023-09-07T01:43:42;18.23;;;15.30;;
25687;SDS011;17407;51.120;3.702;2023-09-07T01:46:08;18.40;;;13.07;;
25687;SDS011;17407;51.120;3.702;2023-09-07T01:48:34;20.00;;;14.38;;
25687;SDS011;17407;51.120;3.702;2023-09-07T01:51:01;15.00;;;13.38;;
25687;SDS011;17407;51.120;3.702;2023-09-07T01:53:26;16.65;;;12.90;;
25687;SDS011;17407;51.120;3.702;2023-09-07T01:55:55;16.45;;;14.27;;
25687;SDS011;17407;51.120;3.702;2023-09-07T01:58:21;16.15;;;13.48;;
25687;SDS011;17407;51.120;3.702;2023-09-07T02:00:49;14.32;;;12.10;;
25687;SDS011;17407;51.120;3.702;2023-09-07T02:03:14;19.33;;;14.85;;
25687;SDS011;17407;51.120;3.702;2023-09-07T02:05:40;17.90;;;14.35;;
25687;SDS011;17407;51.120;3.702;2023-09-07T02:08:06;19.02;;;14.55;;
25687;SDS011;17407;51.120;3.702;2023-09-07T02:10:32;17.38;;;13.55;;
25687;SDS011;17407;51.120;3.702;2023-09-07T02:12:58;16.10;;;13.73;;
25687;SDS011;17407;51.120;3.702;2023-09-07T02:15:24;18.30;;;15.25;;
25687;SDS011;17407;51.120;3.702;2023-09-07T02:17:50;22.25;;;15.27;;
25687;SDS011;17407;51.120;3.702;2023-09-07T02:20:15;17.58;;;14.95;;
25687;SDS011;17407;51.120;3.702;2023-09-07T02:22:41;19.73;;;15.88;;
25687;SDS011;17407;51.120;3.702;2023-09-07T02:25:07;15.82;;;14.13;;
25687;SDS011;17407;51.120;3.702;2023-09-07T02:27:33;18.90;;;14.77;;
25687;SDS011;17407;51.120;3.702;2023-09-07T02:29:59;17.50;;;15.18;;
25687;SDS011;17407;51.120;3.702;2023-09-07T02:32:24;18.80;;;15.00;;
25687;SDS011;17407;51.120;3.702;2023-09-07T02:34:50;20.35;;;15.88;;
25687;SDS011;17407;51.120;3.702;2023-09-07T02:37:16;17.00;;;14.75;;
25687;SDS011;17407;51.120;3.702;2023-09-07T02:39:42;15.82;;;14.07;;
25687;SDS011;17407;51.120;3.702;2023-09-07T02:42:08;17.55;;;15.45;;
25687;SDS011;17407;51.120;3.702;2023-09-07T02:44:34;18.25;;;15.50;;
25687;SDS011;17407;51.120;3.702;2023-09-07T02:47:00;18.83;;;15.55;;
25687;SDS011;17407;51.120;3.702;2023-09-07T02:49:26;18.45;;;14.68;;
25687;SDS011;17407;51.120;3.702;2023-09-07T02:51:52;17.88;;;15.43;;
25687;SDS011;17407;51.120;3.702;2023-09-07T02:54:18;15.70;;;14.07;;
25687;SDS011;17407;51.120;3.702;2023-09-07T02:56:43;19.17;;;14.88;;
25687;SDS011;17407;51.120;3.702;2023-09-07T02:59:09;16.88;;;14.85;;
25687;SDS011;17407;51.120;3.702;2023-09-07T03:01:35;15.95;;;13.88;;
25687;SDS011;17407;51.120;3.702;2023-09-07T03:04:00;14.88;;;13.32;;
25687;SDS011;17407;51.120;3.702;2023-09-07T03:06:28;18.38;;;13.32;;
25687;SDS011;17407;51.120;3.702;2023-09-07T03:08:54;15.55;;;13.73;;
25687;SDS011;17407;51.120;3.702;2023-09-07T03:11:19;15.52;;;13.75;;
25687;SDS011;17407;51.120;3.702;2023-09-07T03:13:45;19.90;;;14.95;;
25687;SDS011;17407;51.120;3.702;2023-09-07T03:16:11;20.13;;;17.33;;
25687;SDS011;17407;51.120;3.702;2023-09-07T03:18:36;22.00;;;17.58;;
25687;SDS011;17407;51.120;3.702;2023-09-07T03:21:02;20.88;;;16.90;;
25687;SDS011;17407;51.120;3.702;2023-09-07T03:23:29;19.90;;;15.93;;
25687;SDS011;17407;51.120;3.702;2023-09-07T03:25:55;16.95;;;14.80;;
25687;SDS011;17407;51.120;3.702;2023-09-07T03:28:22;17.80;;;15.73;;
25687;SDS011;17407;51.120;3.702;2023-09-07T03:30:48;17.30;;;15.50;;
25687;SDS011;17407;51.120;3.702;2023-09-07T03:33:14;20.95;;;16.33;;
25687;SDS011;17407;51.120;3.702;2023-09-07T03:35:39;18.73;;;16.58;;
25687;SDS011;17407;51.120;3.702;2023-09-07T03:38:06;18.25;;;16.17;;
25687;SDS011;17407;51.120;3.702;2023-09-07T03:40:31;23.67;;;18.17;;
25687;SDS011;17407;51.120;3.702;2023-09-07T03:42:57;20.85;;;17.42;;
25687;SDS011;17407;51.120;3.702;2023-09-07T03:45:22;18.50;;;16.15;;
25687;SDS011;17407;51.120;3.702;2023-09-07T03:47:48;19.13;;;17.13;;
25687;SDS011;17407;51.120;3.702;2023-09-07T03:50:14;18.65;;;16.48;;
25687;SDS011;17407;51.120;3.702;2023-09-07T03:52:40;21.42;;;16.48;;
25687;SDS011;17407;51.120;3.702;2023-09-07T03:55:06;21.73;;;16.50;;
25687;SDS011;17407;51.120;3.702;2023-09-07T03:57:32;18.92;;;16.73;;
25687;SDS011;17407;51.120;3.702;2023-09-07T03:59:57;22.23;;;17.88;;
25687;SDS011;17407;51.120;3.702;2023-09-07T04:02:23;19.23;;;16.80;;
25687;SDS011;17407;51.120;3.702;2023-09-07T04:04:53;21.02;;;17.40;;
25687;SDS011;17407;51.120;3.702;2023-09-07T04:07:20;20.92;;;16.10;;
25687;SDS011;17407;51.120;3.702;2023-09-07T04:09:46;18.80;;;15.52;;
25687;SDS011;17407;51.120;3.702;2023-09-07T04:12:12;17.85;;;15.95;;
25687;SDS011;17407;51.120;3.702;2023-09-07T04:14:37;16.52;;;14.70;;
25687;SDS011;17407;51.120;3.702;2023-09-07T04:17:04;16.27;;;13.50;;
25687;SDS011;17407;51.120;3.702;2023-09-07T04:19:30;14.15;;;12.63;;
25687;SDS011;17407;51.120;3.702;2023-09-07T04:21:56;15.30;;;13.70;;
25687;SDS011;17407;51.120;3.702;2023-09-07T04:24:22;17.38;;;13.90;;
25687;SDS011;17407;51.120;3.702;2023-09-07T04:26:48;15.32;;;13.00;;
25687;SDS011;17407;51.120;3.702;2023-09-07T04:29:14;16.10;;;13.45;;
25687;SDS011;17407;51.120;3.702;2023-09-07T04:31:41;18.65;;;13.90;;
25687;SDS011;17407;51.120;3.702;2023-09-07T04:34:07;15.35;;;13.77;;
25687;SDS011;17407;51.120;3.702;2023-09-07T04:36:33;15.85;;;14.10;;
25687;SDS011;17407;51.120;3.702;2023-09-07T04:38:58;18.73;;;14.38;;
25687;SDS011;17407;51.120;3.702;2023-09-07T04:41:24;18.65;;;15.93;;
25687;SDS011;17407;51.120;3.702;2023-09-07T04:43:50;18.30;;;14.70;;
25687;SDS011;17407;51.120;3.702;2023-09-07T04:46:15;19.08;;;17.08;;
25687;SDS011;17407;51.120;3.702;2023-09-07T04:48:42;21.40;;;16.98;;
25687;SDS011;17407;51.120;3.702;2023-09-07T04:51:08;23.80;;;20.45;;
25687;SDS011;17407;51.120;3.702;2023-09-07T04:53:38;26.15;;;20.95;;
25687;SDS011;17407;51.120;3.702;2023-09-07T04:56:06;24.70;;;22.05;;
25687;SDS011;17407;51.120;3.702;2023-09-07T04:58:33;27.17;;;20.13;;
25687;SDS011;17407;51.120;3.702;2023-09-07T05:01:06;28.02;;;22.35;;
25687;SDS011;17407;51.120;3.702;2023-09-07T05:03:34;26.10;;;22.10;;
25687;SDS011;17407;51.120;3.702;2023-09-07T05:06:00;27.88;;;21.60;;
25687;SDS011;17407;51.120;3.702;2023-09-07T05:08:28;26.52;;;19.67;;
25687;SDS011;17407;51.120;3.702;2023-09-07T05:10:57;20.95;;;18.73;;
25687;SDS011;17407;51.120;3.702;2023-09-07T05:13:25;21.02;;;17.70;;
25687;SDS011;17407;51.120;3.702;2023-09-07T05:15:52;23.30;;;18.25;;
25687;SDS011;17407;51.120;3.702;2023-09-07T05:18:18;20.70;;;16.63;;
25687;SDS011;17407;51.120;3.702;2023-09-07T05:20:44;20.95;;;17.30;;
25687;SDS011;17407;51.120;3.702;2023-09-07T05:23:13;18.38;;;15.50;;
25687;SDS011;17407;51.120;3.702;2023-09-07T05:25:50;15.98;;;14.23;;
25687;SDS011;17407;51.120;3.702;2023-09-07T05:28:17;15.50;;;13.65;;
25687;SDS011;17407;51.120;3.702;2023-09-07T05:30:44;20.17;;;13.98;;
25687;SDS011;17407;51.120;3.702;2023-09-07T05:33:10;17.27;;;15.40;;
25687;SDS011;17407;51.120;3.702;2023-09-07T05:35:39;18.15;;;14.63;;
25687;SDS011;17407;51.120;3.702;2023-09-07T05:38:06;18.83;;;16.23;;
25687;SDS011;17407;51.120;3.702;2023-09-07T05:40:36;20.92;;;17.90;;
25687;SDS011;17407;51.120;3.702;2023-09-07T05:43:03;24.63;;;18.13;;
25687;SDS011;17407;51.120;3.702;2023-09-07T05:45:34;24.73;;;18.08;;
25687;SDS011;17407;51.120;3.702;2023-09-07T05:48:01;21.90;;;17.40;;
25687;SDS011;17407;51.120;3.702;2023-09-07T05:50:28;23.35;;;17.20;;
25687;SDS011;17407;51.120;3.702;2023-09-07T05:52:54;22.70;;;17.73;;
25687;SDS011;17407;51.120;3.702;2023-09-07T05:55:19;21.17;;;17.65;;
25687;SDS011;17407;51.120;3.702;2023-09-07T05:57:45;23.52;;;18.80;;
25687;SDS011;17407;51.120;3.702;2023-09-07T06:00:11;22.90;;;18.00;;
25687;SDS011;17407;51.120;3.702;2023-09-07T06:02:38;24.90;;;18.08;;
25687;SDS011;17407;51.120;3.702;2023-09-07T06:05:04;19.75;;;17.65;;
25687;SDS011;17407;51.120;3.702;2023-09-07T06:07:30;22.30;;;17.05;;
25687;SDS011;17407;51.120;3.702;2023-09-07T06:09:56;22.27;;;17.88;;
25687;SDS011;17407;51.120;3.702;2023-09-07T06:12:23;25.23;;;18.48;;
25687;SDS011;17407;51.120;3.702;2023-09-07T06:14:49;21.90;;;16.83;;
25687;SDS011;17407;51.120;3.702;2023-09-07T06:17:15;20.90;;;18.40;;
25687;SDS011;17407;51.120;3.702;2023-09-07T06:19:41;19.55;;;17.45;;
25687;SDS011;17407;51.120;3.702;2023-09-07T06:22:07;23.33;;;16.80;;
25687;SDS011;17407;51.120;3.702;2023-09-07T06:24:33;20.15;;;16.40;;
25687;SDS011;17407;51.120;3.702;2023-09-07T06:26:58;25.52;;;16.02;;
25687;SDS011;17407;51.120;3.702;2023-09-07T06:29:24;19.88;;;16.92;;
25687;SDS011;17407;51.120;3.702;2023-09-07T06:31:50;19.30;;;14.80;;
25687;SDS011;17407;51.120;3.702;2023-09-07T06:34:17;21.85;;;18.05;;
25687;SDS011;17407;51.120;3.702;2023-09-07T06:36:43;24.17;;;18.95;;
25687;SDS011;17407;51.120;3.702;2023-09-07T06:39:08;26.27;;;18.63;;
25687;SDS011;17407;51.120;3.702;2023-09-07T06:41:34;22.23;;;17.73;;
25687;SDS011;17407;51.120;3.702;2023-09-07T06:43:59;21.95;;;17.35;;
25687;SDS011;17407;51.120;3.702;2023-09-07T06:46:25;27.98;;;18.63;;
25687;SDS011;17407;51.120;3.702;2023-09-07T06:48:51;28.35;;;18.52;;
25687;SDS011;17407;51.120;3.702;2023-09-07T06:51:17;19.77;;;16.65;;
25687;SDS011;17407;51.120;3.702;2023-09-07T06:53:42;20.17;;;16.23;;
25687;SDS011;17407;51.120;3.702;2023-09-07T06:56:08;22.02;;;15.70;;
25687;SDS011;17407;51.120;3.702;2023-09-07T06:58:35;18.25;;;15.40;;
25687;SDS011;17407;51.120;3.702;2023-09-07T07:01:01;17.35;;;15.48;;
25687;SDS011;17407;51.120;3.702;2023-09-07T07:03:28;21.15;;;15.70;;
25687;SDS011;17407;51.120;3.702;2023-09-07T07:05:55;22.35;;;17.95;;
25687;SDS011;17407;51.120;3.702;2023-09-07T07:08:21;21.33;;;16.20;;
25687;SDS011;17407;51.120;3.702;2023-09-07T07:10:48;15.68;;;13.38;;
25687;SDS011;17407;51.120;3.702;2023-09-07T07:13:13;17.55;;;14.57;;
25687;SDS011;17407;51.120;3.702;2023-09-07T07:15:39;20.38;;;14.57;;
25687;SDS011;17407;51.120;3.702;2023-09-07T07:18:05;16.67;;;13.80;;
25687;SDS011;17407;51.120;3.702;2023-09-07T07:20:37;16.08;;;13.43;;
25687;SDS011;17407;51.120;3.702;2023-09-07T07:23:03;19.98;;;13.50;;
25687;SDS011;17407;51.120;3.702;2023-09-07T07:25:34;16.00;;;14.10;;
25687;SDS011;17407;51.120;3.702;2023-09-07T07:28:00;21.00;;;13.95;;
25687;SDS011;17407;51.120;3.702;2023-09-07T07:30:29;17.10;;;14.10;;
25687;SDS011;17407;51.120;3.702;2023-09-07T07:32:55;15.80;;;12.55;;
25687;SDS011;17407;51.120;3.702;2023-09-07T07:35:21;18.05;;;13.55;;
25687;SDS011;17407;51.120;3.702;2023-09-07T07:37:47;20.45;;;13.73;;
25687;SDS011;17407;51.120;3.702;2023-09-07T07:40:13;17.48;;;13.65;;
25687;SDS011;17407;51.120;3.702;2023-09-07T07:42:39;13.20;;;11.90;;
25687;SDS011;17407;51.120;3.702;2023-09-07T07:45:04;13.07;;;11.35;;
25687;SDS011;17407;51.120;3.702;2023-09-07T07:47:30;17.33;;;12.90;;
25687;SDS011;17407;51.120;3.702;2023-09-07T07:49:58;14.00;;;12.18;;
25687;SDS011;17407;51.120;3.702;2023-09-07T07:52:24;15.63;;;12.38;;
25687;SDS011;17407;51.120;3.702;2023-09-07T07:54:49;15.32;;;12.82;;
25687;SDS011;17407;51.120;3.702;2023-09-07T07:57:15;15.20;;;11.63;;
25687;SDS011;17407;51.120;3.702;2023-09-07T07:59:41;13.70;;;12.30;;
25687;SDS011;17407;51.120;3.702;2023-09-07T08:02:07;17.77;;;13.07;;
25687;SDS011;17407;51.120;3.702;2023-09-07T08:04:32;18.70;;;11.93;;
25687;SDS011;17407;51.120;3.702;2023-09-07T08:06:59;14.10;;;11.60;;
25687;SDS011;17407;51.120;3.702;2023-09-07T08:09:29;16.55;;;11.90;;
25687;SDS011;17407;51.120;3.702;2023-09-07T08:11:56;14.93;;;11.45;;
25687;SDS011;17407;51.120;3.702;2023-09-07T08:14:22;12.77;;;10.27;;
25687;SDS011;17407;51.120;3.702;2023-09-07T08:16:52;13.27;;;11.38;;
25687;SDS011;17407;51.120;3.702;2023-09-07T08:19:18;15.05;;;10.55;;
25687;SDS011;17407;51.120;3.702;2023-09-07T08:21:44;15.68;;;10.18;;
25687;SDS011;17407;51.120;3.702;2023-09-07T08:24:11;14.27;;;10.13;;
25687;SDS011;17407;51.120;3.702;2023-09-07T08:26:39;16.40;;;9.43;;
25687;SDS011;17407;51.120;3.702;2023-09-07T08:29:05;12.85;;;9.18;;
25687;SDS011;17407;51.120;3.702;2023-09-07T08:31:32;17.17;;;9.80;;
25687;SDS011;17407;51.120;3.702;2023-09-07T08:34:01;12.85;;;8.95;;
25687;SDS011;17407;51.120;3.702;2023-09-07T08:36:28;12.70;;;9.15;;
25687;SDS011;17407;51.120;3.702;2023-09-07T08:38:57;15.32;;;10.18;;
25687;SDS011;17407;51.120;3.702;2023-09-07T08:41:26;10.68;;;8.40;;
25687;SDS011;17407;51.120;3.702;2023-09-07T08:43:53;9.43;;;8.15;;
25687;SDS011;17407;51.120;3.702;2023-09-07T08:46:20;13.38;;;7.97;;
25687;SDS011;17407;51.120;3.702;2023-09-07T08:48:48;13.57;;;8.80;;
25687;SDS011;17407;51.120;3.702;2023-09-07T08:51:15;9.38;;;7.70;;
25687;SDS011;17407;51.120;3.702;2023-09-07T08:53:42;10.52;;;8.93;;
25687;SDS011;17407;51.120;3.702;2023-09-07T08:56:14;11.60;;;8.25;;
25687;SDS011;17407;51.120;3.702;2023-09-07T08:58:42;10.10;;;7.85;;
25687;SDS011;17407;51.120;3.702;2023-09-07T09:01:09;9.68;;;7.68;;
25687;SDS011;17407;51.120;3.702;2023-09-07T09:03:35;10.77;;;6.88;;
25687;SDS011;17407;51.120;3.702;2023-09-07T09:06:01;12.15;;;8.15;;
25687;SDS011;17407;51.120;3.702;2023-09-07T09:08:28;10.82;;;7.78;;
25687;SDS011;17407;51.120;3.702;2023-09-07T09:10:58;9.02;;;7.78;;
25687;SDS011;17407;51.120;3.702;2023-09-07T09:13:29;9.05;;;7.35;;
25687;SDS011;17407;51.120;3.702;2023-09-07T09:16:00;9.77;;;6.40;;
25687;SDS011;17407;51.120;3.702;2023-09-07T09:18:26;8.93;;;7.03;;
25687;SDS011;17407;51.120;3.702;2023-09-07T09:20:54;8.73;;;6.57;;
25687;SDS011;17407;51.120;3.702;2023-09-07T09:23:20;11.43;;;7.22;;
25687;SDS011;17407;51.120;3.702;2023-09-07T09:25:47;11.65;;;7.13;;
25687;SDS011;17407;51.120;3.702;2023-09-07T09:28:14;12.07;;;7.13;;
25687;SDS011;17407;51.120;3.702;2023-09-07T09:30:40;8.23;;;5.72;;
25687;SDS011;17407;51.120;3.702;2023-09-07T09:33:10;10.18;;;5.75;;
25687;SDS011;17407;51.120;3.702;2023-09-07T09:35:36;8.65;;;6.10;;
25687;SDS011;17407;51.120;3.702;2023-09-07T09:38:03;9.10;;;6.28;;
25687;SDS011;17407;51.120;3.702;2023-09-07T09:40:30;10.93;;;5.90;;
25687;SDS011;17407;51.120;3.702;2023-09-07T09:42:56;7.30;;;5.45;;
25687;SDS011;17407;51.120;3.702;2023-09-07T09:45:24;5.47;;;4.90;;
25687;SDS011;17407;51.120;3.702;2023-09-07T09:47:52;9.20;;;5.78;;
25687;SDS011;17407;51.120;3.702;2023-09-07T09:50:21;6.32;;;5.20;;
25687;SDS011;17407;51.120;3.702;2023-09-07T09:52:48;7.70;;;5.07;;
25687;SDS011;17407;51.120;3.702;2023-09-07T09:55:13;9.32;;;5.70;;
25687;SDS011;17407;51.120;3.702;2023-09-07T09:57:40;12.05;;;5.32;;
25687;SDS011;17407;51.120;3.702;2023-09-07T10:00:07;8.48;;;5.38;;
25687;SDS011;17407;51.120;3.702;2023-09-07T10:02:54;7.18;;;5.90;;
25687;SDS011;17407;51.120;3.702;2023-09-07T10:05:40;6.65;;;5.95;;
25687;SDS011;17407;51.120;3.702;2023-09-07T10:08:11;5.47;;;4.82;;
25687;SDS011;17407;51.120;3.702;2023-09-07T10:10:38;8.45;;;5.53;;
25687;SDS011;17407;51.120;3.702;2023-09-07T10:13:05;5.75;;;4.88;;
25687;SDS011;17407;51.120;3.702;2023-09-07T10:15:31;7.13;;;5.30;;
25687;SDS011;17407;51.120;3.702;2023-09-07T10:18:15;5.88;;;4.40;;
25687;SDS011;17407;51.120;3.702;2023-09-07T10:20:52;6.63;;;4.88;;
25687;SDS011;17407;51.120;3.702;2023-09-07T10:23:23;4.90;;;4.40;;
25687;SDS011;17407;51.120;3.702;2023-09-07T10:26:10;9.27;;;4.35;;
25687;SDS011;17407;51.120;3.702;2023-09-07T10:28:36;5.95;;;4.70;;
25687;SDS011;17407;51.120;3.702;2023-09-07T10:31:03;6.60;;;4.15;;
25687;SDS011;17407;51.120;3.702;2023-09-07T10:33:38;5.70;;;4.45;;
25687;SDS011;17407;51.120;3.702;2023-09-07T10:36:04;7.68;;;4.32;;
25687;SDS011;17407;51.120;3.702;2023-09-07T10:38:34;4.90;;;4.38;;
25687;SDS011;17407;51.120;3.702;2023-09-07T10:41:02;4.65;;;4.25;;
25687;SDS011;17407;51.120;3.702;2023-09-07T10:43:29;4.78;;;4.32;;
25687;SDS011;17407;51.120;3.702;2023-09-07T10:45:56;7.55;;;4.70;;
25687;SDS011;17407;51.120;3.702;2023-09-07T10:48:24;6.43;;;5.22;;
25687;SDS011;17407;51.120;3.702;2023-09-07T10:50:50;8.35;;;4.57;;
25687;SDS011;17407;51.120;3.702;2023-09-07T10:55:54;4.57;;;4.18;;
25687;SDS011;17407;51.120;3.702;2023-09-07T10:58:25;5.85;;;5.25;;
25687;SDS011;17407;51.120;3.702;2023-09-07T11:00:53;6.97;;;5.10;;
25687;SDS011;17407;51.120;3.702;2023-09-07T11:03:19;10.85;;;4.88;;
25687;SDS011;17407;51.120;3.702;2023-09-07T11:05:44;8.65;;;5.30;;
25687;SDS011;17407;51.120;3.702;2023-09-07T11:08:10;5.10;;;4.70;;
25687;SDS011;17407;51.120;3.702;2023-09-07T11:10:36;6.05;;;5.55;;
25687;SDS011;17407;51.120;3.702;2023-09-07T11:13:05;10.05;;;5.57;;
25687;SDS011;17407;51.120;3.702;2023-09-07T11:15:32;5.57;;;5.15;;
25687;SDS011;17407;51.120;3.702;2023-09-07T11:18:05;5.78;;;5.20;;
25687;SDS011;17407;51.120;3.702;2023-09-07T11:20:37;8.23;;;5.97;;
25687;SDS011;17407;51.120;3.702;2023-09-07T11:23:04;10.68;;;5.30;;
25687;SDS011;17407;51.120;3.702;2023-09-07T11:25:38;5.88;;;5.38;;
25687;SDS011;17407;51.120;3.702;2023-09-07T11:28:04;16.38;;;5.70;;
25687;SDS011;17407;51.120;3.702;2023-09-07T11:30:34;7.47;;;5.45;;
25687;SDS011;17407;51.120;3.702;2023-09-07T11:33:00;6.50;;;5.63;;
25687;SDS011;17407;51.120;3.702;2023-09-07T11:35:29;11.10;;;5.32;;
25687;SDS011;17407;51.120;3.702;2023-09-07T11:37:55;8.68;;;5.10;;
25687;SDS011;17407;51.120;3.702;2023-09-07T11:40:21;5.03;;;4.63;;
25687;SDS011;17407;51.120;3.702;2023-09-07T11:42:47;7.07;;;4.53;;
25687;SDS011;17407;51.120;3.702;2023-09-07T11:45:13;8.63;;;4.53;;
25687;SDS011;17407;51.120;3.702;2023-09-07T11:47:39;8.50;;;4.30;;
25687;SDS011;17407;51.120;3.702;2023-09-07T11:50:05;7.28;;;5.50;;
25687;SDS011;17407;51.120;3.702;2023-09-07T11:52:34;7.95;;;4.80;;
25687;SDS011;17407;51.120;3.702;2023-09-07T11:54:59;10.65;;;4.50;;
25687;SDS011;17407;51.120;3.702;2023-09-07T11:57:27;11.57;;;4.95;;
25687;SDS011;17407;51.120;3.702;2023-09-07T11:59:52;7.05;;;4.65;;
25687;SDS011;17407;51.120;3.702;2023-09-07T12:02:18;6.65;;;5.07;;
25687;SDS011;17407;51.120;3.702;2023-09-07T12:04:46;5.90;;;5.30;;
25687;SDS011;17407;51.120;3.702;2023-09-07T12:07:12;5.45;;;4.80;;
25687;SDS011;17407;51.120;3.702;2023-09-07T12:09:38;5.28;;;4.60;;
25687;SDS011;17407;51.120;3.702;2023-09-07T12:12:04;5.80;;;4.72;;
25687;SDS011;17407;51.120;3.702;2023-09-07T12:14:29;6.88;;;4.82;;
25687;SDS011;17407;51.120;3.702;2023-09-07T12:16:56;8.57;;;5.18;;
25687;SDS011;17407;51.120;3.702;2023-09-07T12:19:22;5.35;;;4.85;;
25687;SDS011;17407;51.120;3.702;2023-09-07T12:21:47;6.78;;;4.88;;
25687;SDS011;17407;51.120;3.702;2023-09-07T12:24:13;5.13;;;4.63;;
25687;SDS011;17407;51.120;3.702;2023-09-07T12:26:39;5.20;;;4.70;;
25687;SDS011;17407;51.120;3.702;2023-09-07T12:29:04;5.30;;;4.80;;
25687;SDS011;17407;51.120;3.702;2023-09-07T12:31:31;5.78;;;4.78;;
25687;SDS011;17407;51.120;3.702;2023-09-07T12:33:57;8.50;;;4.65;;
25687;SDS011;17407;51.120;3.702;2023-09-07T12:36:22;6.20;;;4.20;;
25687;SDS011;17407;51.120;3.702;2023-09-07T12:38:49;7.40;;;5.38;;
25687;SDS011;17407;51.120;3.702;2023-09-07T12:41:14;5.47;;;4.57;;
25687;SDS011;17407;51.120;3.702;2023-09-07T12:43:40;6.95;;;4.20;;
25687;SDS011;17407;51.120;3.702;2023-09-07T12:46:08;9.02;;;4.28;;
25687;SDS011;17407;51.120;3.702;2023-09-07T12:48:34;7.03;;;4.53;;
25687;SDS011;17407;51.120;3.702;2023-09-07T12:51:00;8.07;;;4.82;;
25687;SDS011;17407;51.120;3.702;2023-09-07T12:53:25;9.50;;;4.90;;
25687;SDS011;17407;51.120;3.702;2023-09-07T12:55:52;6.55;;;4.80;;
25687;SDS011;17407;51.120;3.702;2023-09-07T12:58:18;7.00;;;4.32;;
25687;SDS011;17407;51.120;3.702;2023-09-07T13:00:44;4.85;;;4.28;;
25687;SDS011;17407;51.120;3.702;2023-09-07T13:03:10;21.10;;;4.70;;
25687;SDS011;17407;51.120;3.702;2023-09-07T13:05:36;4.57;;;4.18;;
25687;SDS011;17407;51.120;3.702;2023-09-07T13:08:02;11.07;;;4.53;;
25687;SDS011;17407;51.120;3.702;2023-09-07T13:10:28;7.43;;;4.63;;
25687;SDS011;17407;51.120;3.702;2023-09-07T13:12:54;8.55;;;4.38;;
25687;SDS011;17407;51.120;3.702;2023-09-07T13:15:20;5.35;;;4.10;;
25687;SDS011;17407;51.120;3.702;2023-09-07T13:17:46;7.90;;;4.45;;
25687;SDS011;17407;51.120;3.702;2023-09-07T13:20:11;6.28;;;4.95;;
25687;SDS011;17407;51.120;3.702;2023-09-07T13:22:38;5.65;;;4.53;;
25687;SDS011;17407;51.120;3.702;2023-09-07T13:25:04;6.05;;;4.63;;
25687;SDS011;17407;51.120;3.702;2023-09-07T13:27:30;5.40;;;4.82;;
25687;SDS011;17407;51.120;3.702;2023-09-07T13:29:56;6.57;;;4.63;;
25687;SDS011;17407;51.120;3.702;2023-09-07T13:32:22;8.48;;;4.10;;
25687;SDS011;17407;51.120;3.702;2023-09-07T13:34:49;6.00;;;4.40;;
25687;SDS011;17407;51.120;3.702;2023-09-07T13:37:15;5.70;;;5.07;;
25687;SDS011;17407;51.120;3.702;2023-09-07T13:39:41;6.63;;;3.80;;
25687;SDS011;17407;51.120;3.702;2023-09-07T13:42:06;4.68;;;4.28;;
25687;SDS011;17407;51.120;3.702;2023-09-07T13:44:32;7.43;;;3.92;;
25687;SDS011;17407;51.120;3.702;2023-09-07T13:46:58;5.68;;;4.00;;
25687;SDS011;17407;51.120;3.702;2023-09-07T13:49:24;4.55;;;4.03;;
25687;SDS011;17407;51.120;3.702;2023-09-07T13:51:50;4.40;;;4.00;;
25687;SDS011;17407;51.120;3.702;2023-09-07T13:54:16;5.40;;;4.00;;
25687;SDS011;17407;51.120;3.702;2023-09-07T13:56:41;5.28;;;4.28;;
25687;SDS011;17407;51.120;3.702;2023-09-07T13:59:09;6.35;;;4.47;;
25687;SDS011;17407;51.120;3.702;2023-09-07T14:01:35;5.75;;;4.20;;
25687;SDS011;17407;51.120;3.702;2023-09-07T14:04:02;5.88;;;4.40;;
25687;SDS011;17407;51.120;3.702;2023-09-07T14:06:28;4.70;;;4.00;;
25687;SDS011;17407;51.120;3.702;2023-09-07T14:08:54;5.25;;;4.00;;
25687;SDS011;17407;51.120;3.702;2023-09-07T14:11:20;7.00;;;4.78;;
25687;SDS011;17407;51.120;3.702;2023-09-07T14:13:47;6.35;;;4.18;;
25687;SDS011;17407;51.120;3.702;2023-09-07T14:16:16;5.07;;;4.20;;
25687;SDS011;17407;51.120;3.702;2023-09-07T14:18:43;4.80;;;4.40;;
25687;SDS011;17407;51.120;3.702;2023-09-07T14:21:09;8.02;;;4.20;;
25687;SDS011;17407;51.120;3.702;2023-09-07T14:23:34;6.30;;;4.47;;
25687;SDS011;17407;51.120;3.702;2023-09-07T14:26:00;5.55;;;4.25;;
25687;SDS011;17407;51.120;3.702;2023-09-07T14:28:26;9.32;;;4.47;;
25687;SDS011;17407;51.120;3.702;2023-09-07T14:30:51;8.48;;;4.53;;